Time;durP1;ratioP1;P1;durP2;ratioP2;P2;SDS_P1;SDS_P2;PMS_P1;PMS_P2;Temp;Humidity;BMP_temperature;BMP_pressure;BME280_temperature;BME280_humidity;BME280_pressure;Samples;Min_cycle;Max_cycle;Signal;HPM_P1;HPM_P2
2022/01/17 00:01:01;;;;;;;447.80;145.47;;;;;;;11.74;55.47;101658.56;5094387;28;19913;-88
2022/01/17 00:03:46;;;;;;;376.48;130.85;;;;;;;11.69;49.88;101655.91;5098049;28;20041;-89
2022/01/17 00:06:31;;;;;;;;;;;;;;;11.65;49.82;101648.63;5100924;28;20044;-88
2022/01/17 00:09:16;;;;;;;604.45;230.75;;;;;;;11.69;53.03;101646.91;5098633;28;19900;-89
2022/01/17 00:12:01;;;;;;;228.57;85.18;;;;;;;11.70;48.83;101643.91;5102499;28;20028;-89
2022/01/17 00:14:46;;;;;;;190.95;63.38;;;;;;;11.61;49.86;101661.25;5099378;28;20040;-89
2022/01/17 00:17:36;;;;;;;334.48;117.72;;;;;;;11.57;52.14;101661.84;5103598;28;20036;-89
2022/01/17 00:20:26;;;;;;;426.83;151.23;;;;;;;11.56;52.79;101662.13;5081865;28;20025;-85
2022/01/17 00:23:12;;;;;;;616.67;241.90;;;;;;;11.56;54.34;101659.41;5080216;28;20029;-89
2022/01/17 00:25:56;;;;;;;398.85;136.30;;;;;;;11.47;51.72;101650.31;5091490;28;20048;-89
2022/01/17 00:28:42;;;;;;;696.15;273.25;;;;;;;11.44;51.10;101678.94;5102628;28;20025;-91
2022/01/17 00:31:27;;;;;;;768.72;314.48;;;;;;;11.57;59.62;101683.66;5102098;28;20032;-89
2022/01/17 00:34:12;;;;;;;873.80;361.60;;;;;;;11.61;61.65;101694.75;5100008;28;20032;-90
2022/01/17 00:36:57;;;;;;;532.85;200.43;;;;;;;11.59;58.97;101680.59;5101836;28;20062;-88
2022/01/17 00:39:43;;;;;;;559.63;212.50;;;;;;;11.58;58.06;101689.88;5094437;28;20044;-88
2022/01/17 00:42:28;;;;;;;464.48;166.38;;;;;;;11.54;53.18;101689.66;5098155;28;20044;-88
2022/01/17 00:45:13;;;;;;;925.03;373.00;;;;;;;11.60;60.53;101684.94;5100244;28;20040;-89
2022/01/17 00:48:00;;;;;;;880.70;360.50;;;;;;;11.61;61.02;101683.84;5109103;28;20039;-88
2022/01/17 00:50:47;;;;;;;938.25;383.88;;;;;;;11.64;62.42;101679.69;5092994;28;20045;-88
2022/01/17 00:53:32;;;;;;;969.20;407.65;;;;;;;11.67;64.67;101674.50;5093029;28;20558;-89
2022/01/17 00:56:19;;;;;;;479.52;185.68;;;;;;;11.65;61.00;101670.44;5080699;28;20020;-88
2022/01/17 00:59:04;;;;;;;952.25;399.17;;;;;;;11.65;64.67;101668.53;5082580;28;20044;-88
2022/01/17 01:01:49;;;;;;;764.97;309.00;;;;;;;11.62;63.04;101662.88;5087173;28;20040;-88
2022/01/17 01:04:34;;;;;;;1028.15;418.85;;;;;;;11.67;66.28;101679.13;5084417;28;20421;-87
2022/01/17 01:07:18;;;;;;;780.40;323.00;;;;;;;11.65;65.97;101684.88;5087726;28;20044;-86
2022/01/17 01:10:10;;;;;;;605.25;236.57;;;;;;;11.58;60.68;101679.78;5086380;28;20041;-86
2022/01/17 01:12:55;;;;;;;441.80;154.38;;;;;;;11.55;58.21;101685.03;5086117;28;20036;-86
2022/01/17 01:27:44;;;;;;;297.35;102.10;;;;;;;11.25;53.21;101699.13;5085771;28;20505;-86
2022/01/17 01:30:30;;;;;;;615.47;226.63;;;;;;;11.27;55.75;101696.94;5085856;28;20048;-86
2022/01/17 01:33:26;;;;;;;894.70;360.30;;;;;;;11.29;56.90;101714.59;5085500;28;20036;-87
2022/01/17 01:36:17;;;;;;;664.53;263.10;;;;;;;11.28;57.67;101710.22;5081484;28;20032;-86
2022/01/17 01:39:04;;;;;;;966.65;397.45;;;;;;;11.31;60.91;101706.94;5081139;28;20485;-87
2022/01/17 01:41:50;;;;;;;622.00;248.48;;;;;;;11.31;61.07;101714.28;5083232;28;20032;-86
2022/01/17 01:44:36;;;;;;;585.47;225.70;;;;;;;11.26;57.49;101698.03;5084988;28;20048;-86
2022/01/17 01:47:23;;;;;;;368.13;130.60;;;;;;;11.18;54.25;101709.56;5085523;28;20404;-85
2022/01/17 01:50:10;;;;;;;436.73;154.95;;;;;;;11.05;50.50;101700.25;5083449;28;20049;-86
2022/01/17 01:52:56;;;;;;;457.33;169.73;;;;;;;11.01;53.77;101702.75;5084240;28;20044;-86
2022/01/17 01:55:40;;;;;;;452.27;175.65;;;;;;;11.05;56.38;101713.84;5083863;28;20041;-86
2022/01/17 01:58:26;;;;;;;342.80;123.13;;;;;;;11.06;55.42;101718.19;5066686;28;20493;-86
2022/01/17 02:01:11;;;;;;;917.83;373.90;;;;;;;10.98;56.64;101722.38;5084005;28;20040;-86
2022/01/17 02:03:55;;;;;;;517.58;194.50;;;;;;;11.01;56.46;101713.66;5083837;28;20048;-87
2022/01/17 02:06:41;;;;;;;355.10;123.97;;;;;;;10.96;56.58;101713.72;5084306;28;20040;-87
2022/01/17 02:09:26;;;;;;;492.95;170.80;;;;;;;10.86;50.61;101710.31;5079216;28;20048;-87
2022/01/17 02:12:11;;;;;;;228.43;79.07;;;;;;;10.77;49.30;101707.41;5084664;28;20032;-86
2022/01/17 02:14:56;;;;;;;;;;;;;;;10.79;53.80;101707.94;5080120;28;20036;-86
2022/01/17 02:17:46;;;;;;;364.25;115.90;;;;;;;10.83;53.47;101713.59;5083448;28;19992;-87
2022/01/17 02:20:43;;;;;;;863.80;337.92;;;;;;;10.77;54.27;101707.41;5084295;28;20037;-87
2022/01/17 02:23:32;;;;;;;947.25;380.42;;;;;;;10.85;59.63;101709.50;5083916;28;20304;-87
2022/01/17 02:26:18;;;;;;;462.80;166.27;;;;;;;10.84;58.91;101718.75;5079506;28;20509;-87
2022/01/17 02:29:03;;;;;;;671.38;252.50;;;;;;;10.84;60.71;101713.31;5078495;28;20044;-88
2022/01/17 02:31:49;;;;;;;365.15;138.90;;;;;;;10.87;59.03;101707.28;5080006;28;20040;-87
2022/01/17 02:34:39;;;;;;;435.13;151.75;;;;;;;10.73;52.19;101706.38;5083091;28;20544;-87
2022/01/17 02:37:24;;;;;;;432.90;148.77;;;;;;;10.76;55.67;101700.38;5080169;28;20660;-87
2022/01/17 02:40:09;;;;;;;458.67;160.68;;;;;;;10.66;52.51;101708.66;5083459;28;20052;-87
2022/01/17 02:43:02;;;;;;;402.15;134.85;;;;;;;10.64;55.06;101714.41;5084475;28;20040;-86
2022/01/17 02:48:39;;;;;;;473.25;172.82;;;;;;;10.70;59.53;101696.91;5080205;28;20036;-87
2022/01/17 02:51:24;;;;;;;916.78;363.10;;;;;;;10.62;56.74;101700.25;5084009;28;20048;-86
2022/01/17 02:54:09;;;;;;;777.38;316.58;;;;;;;10.68;62.16;101709.97;5083518;28;20045;-88
2022/01/17 02:56:54;;;;;;;;;;;;;;;10.66;60.92;101703.22;5083974;28;20037;-87
2022/01/17 02:59:39;;;;;;;728.95;272.02;;;;;;;10.64;59.51;101703.50;5076891;28;19979;-87
2022/01/17 03:02:24;;;;;;;;;;;;;;;10.51;54.17;101711.56;5083304;28;20409;-87
2022/01/17 03:05:09;;;;;;;565.15;210.85;;;;;;;10.43;54.39;101687.72;5082838;28;19916;-86
2022/01/17 03:07:53;;;;;;;320.23;111.88;;;;;;;10.43;51.82;101707.56;5075914;28;20044;-88
2022/01/17 03:10:43;;;;;;;;;;;;;;;10.37;51.53;101713.34;5083465;28;20036;-87
2022/01/17 03:13:32;;;;;;;552.88;201.90;;;;;;;10.28;50.78;101714.00;5078492;28;19912;-87
2022/01/17 03:16:21;;;;;;;754.75;285.30;;;;;;;10.26;53.35;101712.66;5081967;28;20033;-86
2022/01/17 03:19:06;;;;;;;452.80;152.57;;;;;;;10.23;52.75;101715.94;5077553;28;20045;-87
2022/01/17 03:21:50;;;;;;;1068.38;418.88;;;;;;;10.35;60.84;101710.94;5082447;28;20040;-87
2022/01/17 03:24:36;;;;;;;464.52;183.15;;;;;;;10.35;58.95;101713.66;5083351;28;20041;-87
2022/01/17 03:27:21;;;;;;;386.80;125.72;;;;;;;10.29;55.37;101718.34;5083506;28;20044;-88
2022/01/17 03:30:06;;;;;;;929.38;357.15;;;;;;;10.28;56.82;101721.34;5082279;28;20032;-86
2022/01/17 03:32:51;;;;;;;1192.60;478.92;;;;;;;10.41;64.32;101725.28;5082396;28;20041;-88
2022/01/17 03:35:38;;;;;;;1150.30;458.20;;;;;;;10.44;65.43;101711.91;5082065;28;20036;-87
2022/01/17 03:38:27;;;;;;;526.13;203.20;;;;;;;10.41;63.13;101703.53;5077009;28;20036;-87
2022/01/17 03:41:14;;;;;;;882.88;341.05;;;;;;;10.45;65.59;101707.28;5081162;28;20048;-86
2022/01/17 03:43:58;;;;;;;1113.90;443.20;;;;;;;10.47;67.34;101708.59;5081674;28;20040;-86
2022/01/17 03:46:43;;;;;;;929.40;373.65;;;;;;;10.48;67.13;101701.25;5081753;28;20041;-86
2022/01/17 03:49:28;;;;;;;1283.30;511.05;;;;;;;10.52;70.04;101702.28;5076671;28;20036;-86
2022/01/17 03:52:14;;;;;;;1305.93;526.67;;;;;;;10.58;71.12;101717.47;5086515;28;20032;-87
2022/01/17 03:54:59;;;;;;;1204.07;492.02;;;;;;;10.53;70.02;101723.78;5097880;28;20142;-87
2022/01/17 03:57:44;;;;;;;567.20;214.75;;;;;;;10.42;63.16;101722.25;5092025;28;20048;-88
2022/01/17 04:00:34;;;;;;;947.65;377.55;;;;;;;10.55;69.31;101721.59;5097878;28;20040;-89
2022/01/17 04:03:19;;;;;;;1310.72;524.28;;;;;;;10.60;71.52;101712.53;5098489;28;20037;-87
2022/01/17 04:06:04;;;;;;;;;;;;;;;10.65;73.00;101709.75;5093850;28;20029;-88
2022/01/17 04:08:50;;;;;;;1274.28;507.50;;;;;;;10.61;72.89;101725.88;5093912;28;19931;-88
2022/01/17 04:11:35;;;;;;;;;;;;;;;10.64;72.69;101746.22;5098248;28;20025;-88
2022/01/17 04:14:20;;;;;;;504.08;185.10;;;;;;;10.57;70.42;101756.63;5093040;28;19912;-87
2022/01/17 04:17:06;;;;;;;;;;;;;;;10.47;61.59;101756.75;5090415;28;20032;-87
2022/01/17 04:19:58;;;;;;;1073.32;420.05;;;;;;;10.43;63.18;101750.25;5079750;28;20308;-88
2022/01/17 04:22:50;;;;;;;1252.93;485.17;;;;;;;10.50;68.87;101740.69;5092711;28;20029;-88
2022/01/17 04:25:37;;;;;;;1295.03;529.20;;;;;;;10.55;71.33;101743.34;5096758;28;20056;-88
2022/01/17 04:28:22;;;;;;;1299.22;531.22;;;;;;;10.56;72.28;101738.72;5094535;28;20040;-88
2022/01/17 04:31:07;;;;;;;;;;;;;;;10.59;72.08;101738.13;5092881;28;20041;-87
2022/01/17 04:33:52;;;;;;;663.92;249.90;;;;;;;10.49;68.12;101738.25;5097485;28;19916;-88
2022/01/17 04:36:37;;;;;;;;;;;;;;;10.43;62.06;101742.09;5095515;28;20036;-87
2022/01/17 04:39:21;;;;;;;579.50;207.43;;;;;;;10.31;59.31;101739.00;5091202;28;19912;-87
2022/01/17 04:42:12;;;;;;;878.20;340.05;;;;;;;10.35;64.50;101740.03;5089803;28;20048;-87
2022/01/17 04:45:11;;;;;;;798.92;306.38;;;;;;;10.31;62.38;101731.63;5094548;28;20048;-87
2022/01/17 04:47:56;;;;;;;772.60;301.17;;;;;;;10.26;60.86;101724.34;5080040;28;20040;-87
2022/01/17 04:50:41;;;;;;;841.47;329.35;;;;;;;10.28;64.04;101738.47;5097173;28;20036;-87
2022/01/17 04:53:28;;;;;;;722.10;291.88;;;;;;;10.27;64.37;101736.84;5097292;28;20037;-87
2022/01/17 04:56:13;;;;;;;1186.55;468.27;;;;;;;10.25;64.80;101733.63;5096224;28;20037;-85
2022/01/17 04:58:57;;;;;;;948.35;360.35;;;;;;;10.26;66.10;101731.69;5095949;28;20048;-87
2022/01/17 05:01:42;;;;;;;889.00;355.90;;;;;;;10.28;68.05;101735.75;5091973;28;20020;-87
2022/01/17 05:04:28;;;;;;;1286.15;512.50;;;;;;;10.31;68.58;101725.41;5095786;28;20048;-87
2022/01/17 05:07:14;;;;;;;684.85;280.60;;;;;;;10.34;70.08;101724.81;5099056;28;20044;-87
2022/01/17 05:09:59;;;;;;;1356.65;540.55;;;;;;;10.35;72.80;101737.31;5113240;28;20036;-87
2022/01/17 05:12:45;;;;;;;1076.72;435.52;;;;;;;10.42;73.54;101752.16;5102173;28;20040;-86
2022/01/17 05:19:48;;;;;;;409.55;148.60;;;;;;;10.26;63.14;101761.56;5097108;28;20032;-86
2022/01/17 05:21:29;;;;;;;1158.00;442.83;;;;;;;10.27;66.98;101755.06;5091225;28;20036;-87
2022/01/17 05:24:14;;;;;;;;;;;;;;;10.35;71.46;101749.00;5098173;28;20424;-87
2022/01/17 05:26:59;;;;;;;1300.20;515.90;;;;;;;10.32;71.71;101729.72;5102061;28;19916;-89
2022/01/17 05:29:46;;;;;;;;;;;;;;;10.25;67.16;101733.63;5105025;28;20230;-87
2022/01/17 05:32:30;;;;;;;71.00;37.72;;;;;;;6.81;49.87;101723.88;5087677;28;20592;-81
2022/01/17 05:35:15;;;;;;;30.75;15.38;;;;;;;3.99;56.61;101727.47;5092424;28;20043;-81
2022/01/17 05:38:00;;;;;;;29.90;14.77;;;;;;;3.84;58.98;101736.13;5098125;28;20052;-83
2022/01/17 05:40:45;;;;;;;28.60;13.98;;;;;;;4.13;59.58;101740.31;5093940;28;20045;-85
2022/01/17 05:43:30;;;;;;;25.85;13.07;;;;;;;3.24;60.31;101725.97;5087461;28;20155;-85
2022/01/17 05:46:15;;;;;;;30.58;13.30;;;;;;;2.63;61.87;101732.03;5097055;28;20440;-85
2022/01/17 05:49:00;;;;;;;29.52;13.73;;;;;;;2.87;61.31;101735.47;5076379;28;20055;-85
2022/01/17 05:51:45;;;;;;;24.20;12.70;;;;;;;2.43;62.08;101740.50;5087896;28;20040;-85
2022/01/17 05:54:30;;;;;;;24.05;11.60;;;;;;;2.43;63.10;101740.50;5094521;28;20071;-85
2022/01/17 05:57:17;;;;;;;27.02;12.15;;;;;;;2.64;61.21;101751.66;5099380;28;20035;-85
2022/01/17 06:00:09;;;;;;;27.58;14.00;;;;;;;1.00;65.54;101758.69;5087829;28;20059;-85
2022/01/17 06:02:54;;;;;;;25.45;14.55;;;;;;;1.12;65.63;101751.50;5085085;28;20048;-85
2022/01/17 06:05:38;;;;;;;22.65;10.70;;;;;;;1.31;66.65;101744.25;5088852;28;20071;-87
2022/01/17 06:08:23;;;;;;;22.02;11.80;;;;;;;1.89;64.62;101756.94;5070189;28;20059;-85
2022/01/17 06:11:08;;;;;;;53.40;21.40;;;;;;;2.01;64.16;101755.91;5084937;28;20047;-83
2022/01/17 06:13:53;;;;;;;27.02;14.38;;;;;;;2.22;63.26;101751.00;5084882;28;20420;-85
2022/01/17 06:16:38;;;;;;;27.23;10.95;;;;;;;2.14;62.86;101755.66;5083208;28;20043;-85
2022/01/17 06:19:23;;;;;;;22.65;11.23;;;;;;;2.20;63.55;101761.16;5083134;28;20036;-86
2022/01/17 06:22:10;;;;;;;19.65;9.65;;;;;;;2.07;63.43;101764.88;5087218;28;20044;-84
2022/01/17 06:24:55;;;;;;;48.88;16.92;;;;;;;2.04;63.65;101774.19;5079423;28;20504;-85
2022/01/17 06:27:40;;;;;;;32.53;13.27;;;;;;;1.56;65.27;101773.56;5075665;28;20052;-85
2022/01/17 06:30:25;;;;;;;22.60;10.70;;;;;;;1.44;65.83;101767.34;5077242;28;20048;-85
2022/01/17 06:33:09;;;;;;;21.98;9.80;;;;;;;1.16;66.94;101767.97;5079308;28;20436;-84
2022/01/17 06:35:54;;;;;;;17.42;10.13;;;;;;;1.25;66.27;101755.88;5071883;28;20047;-84
2022/01/17 06:38:39;;;;;;;26.38;13.95;;;;;;;1.45;66.80;101743.00;5079135;28;20054;-84
2022/01/17 06:41:24;;;;;;;28.83;11.77;;;;;;;1.84;65.49;101751.44;5083723;28;20048;-83
2022/01/17 06:44:09;;;;;;;22.10;10.50;;;;;;;1.91;64.27;101734.22;5095069;28;20040;-84
2022/01/17 06:46:54;;;;;;;21.65;9.38;;;;;;;1.69;65.05;101730.44;5087179;28;20033;-84
2022/01/17 06:49:39;;;;;;;26.60;10.55;;;;;;;1.83;64.99;101734.53;5086685;28;20428;-84
2022/01/17 06:52:24;;;;;;;28.75;13.38;;;;;;;1.87;63.93;101737.59;5077475;28;20048;-84
2022/01/17 06:55:10;;;;;;;28.70;12.15;;;;;;;1.84;63.04;101748.75;5090280;28;20044;-83
2022/01/17 06:57:54;;;;;;;25.20;11.15;;;;;;;1.69;63.52;101747.34;5087937;28;20036;-87
2022/01/17 07:00:39;;;;;;;16.98;10.18;;;;;;;1.68;63.95;101771.72;5085079;28;20040;-87
2022/01/17 07:03:24;;;;;;;19.48;8.35;;;;;;;1.17;63.62;101789.13;5081520;28;20043;-83
2022/01/17 07:06:10;;;;;;;22.52;10.32;;;;;;;0.45;66.75;101800.72;5068978;28;20060;-83
2022/01/17 07:08:54;;;;;;;18.95;9.55;;;;;;;0.90;66.77;101811.13;5079541;28;20032;-83
2022/01/17 07:11:39;;;;;;;24.67;12.45;;;;;;;0.97;67.00;101815.34;5069148;28;20067;-87
2022/01/17 07:14:26;;;;;;;27.60;13.73;;;;;;;1.04;67.91;101807.25;5072687;28;20154;-87
2022/01/17 07:17:11;;;;;;;42.60;20.00;;;;;;;1.11;68.62;101805.31;5077563;28;20028;-88
2022/01/17 07:19:57;;;;;;;44.08;20.85;;;;;;;0.98;69.64;101806.28;5076225;28;20504;-83
2022/01/17 07:22:42;;;;;;;58.67;29.38;;;;;;;1.27;68.14;101810.03;5076711;28;20060;-88
2022/01/17 07:25:27;;;;;;;30.13;16.45;;;;;;;1.38;68.73;101801.22;5074581;28;20036;-89
2022/01/17 07:28:13;;;;;;;31.75;14.57;;;;;;;1.37;68.73;101799.63;5078928;28;20051;-91
2022/01/17 07:30:57;;;;;;;47.95;23.98;;;;;;;1.30;70.53;101796.19;5079714;28;20036;-89
2022/01/17 07:33:43;;;;;;;36.13;19.75;;;;;;;1.15;71.60;101809.19;5076805;28;20051;-89
2022/01/17 07:36:28;;;;;;;36.47;18.85;;;;;;;1.45;71.74;101828.75;5084141;28;20028;-85
2022/01/17 07:39:13;;;;;;;;;;;;;;;3.24;71.86;101836.16;5091818;28;20493;-88
2022/01/17 07:41:57;;;;;;;44.92;22.65;;;;;;;4.36;64.12;101849.69;5089319;28;19912;-88
2022/01/17 07:44:44;;;;;;;26.80;15.00;;;;;;;5.13;57.64;101855.88;5100460;28;20036;-85
2022/01/17 07:47:42;;;;;;;36.58;18.92;;;;;;;5.51;52.50;101862.25;5096585;28;20039;-88
2022/01/17 07:50:26;;;;;;;95.38;26.67;;;;;;;5.55;55.51;101882.25;5080193;28;20051;-75
2022/01/17 07:53:13;;;;;;;42.20;20.38;;;;;;;4.43;59.00;101865.66;5070987;28;20061;-75
2022/01/17 07:55:58;;;;;;;36.67;20.90;;;;;;;4.04;60.96;101846.75;5074031;28;20493;-75
2022/01/17 07:58:44;;;;;;;33.10;16.73;;;;;;;4.21;60.75;101836.81;5079787;28;20050;-74
2022/01/17 08:01:29;;;;;;;36.00;19.60;;;;;;;3.72;63.43;101845.66;5081094;28;20416;-75
2022/01/17 08:04:14;;;;;;;45.63;20.67;;;;;;;3.66;63.71;101846.59;5081262;28;20500;-75
2022/01/17 08:06:59;;;;;;;31.27;14.88;;;;;;;3.80;63.32;101846.09;5085773;28;20075;-73
2022/01/17 08:09:44;;;;;;;29.42;14.18;;;;;;;3.73;63.31;101847.28;5071688;28;20120;-73
2022/01/17 08:12:29;;;;;;;23.23;15.07;;;;;;;3.55;64.16;101845.63;5065398;28;20056;-74
2022/01/17 08:15:15;;;;;;;24.48;14.40;;;;;;;4.11;63.55;101833.16;5073054;28;20492;-74
2022/01/17 08:18:00;;;;;;;33.95;18.35;;;;;;;3.98;63.31;101820.81;5080057;28;20067;-74
2022/01/17 08:20:44;;;;;;;31.33;14.27;;;;;;;3.56;65.26;101819.53;5087006;28;20044;-74
2022/01/17 08:23:30;;;;;;;36.67;16.88;;;;;;;3.62;67.29;101819.38;5069655;28;20041;-74
2022/01/17 08:26:17;;;;;;;32.70;16.75;;;;;;;3.87;66.69;101817.13;5070511;28;20044;-73
2022/01/17 08:29:02;;;;;;;41.80;22.15;;;;;;;3.97;66.30;101816.50;5059898;28;20047;-74
2022/01/17 08:31:47;;;;;;;28.63;16.30;;;;;;;3.71;67.31;101828.69;5066932;28;20051;-75
2022/01/17 08:34:32;;;;;;;27.70;15.45;;;;;;;4.15;66.94;101835.09;5066564;28;20067;-74
2022/01/17 08:37:17;;;;;;;42.67;23.38;;;;;;;4.14;66.90;101829.97;5070048;28;20477;-75
2022/01/17 08:40:05;;;;;;;38.30;19.30;;;;;;;4.07;67.97;101832.81;5066422;28;20872;-74
2022/01/17 08:42:50;;;;;;;49.53;24.88;;;;;;;4.27;67.54;101833.13;5060817;28;20040;-75
2022/01/17 08:45:35;;;;;;;44.65;25.48;;;;;;;4.30;67.91;101827.25;5069754;28;20497;-74
2022/01/17 08:48:20;;;;;;;45.97;20.13;;;;;;;4.28;68.58;101813.22;5073639;28;20040;-75
2022/01/17 08:51:05;;;;;;;44.20;25.13;;;;;;;4.30;68.15;101804.91;5061662;28;20421;-74
2022/01/17 08:53:50;;;;;;;37.13;19.83;;;;;;;4.25;69.47;101784.13;5073297;28;20041;-75
2022/01/17 08:56:34;;;;;;;38.30;20.10;;;;;;;4.36;69.63;101798.53;5076705;28;20412;-76
2022/01/17 08:59:19;;;;;;;40.90;20.33;;;;;;;4.32;69.90;101808.16;5072029;28;20033;-75
2022/01/17 09:02:05;;;;;;;40.70;21.27;;;;;;;4.51;69.66;101811.41;5067154;28;20044;-75
2022/01/17 09:04:49;;;;;;;36.30;20.98;;;;;;;4.68;68.60;101807.59;5065183;28;20048;-75
2022/01/17 09:07:35;;;;;;;34.25;20.83;;;;;;;5.13;67.69;101814.63;5074572;28;20040;-76
2022/01/17 09:10:20;;;;;;;41.95;23.38;;;;;;;5.91;65.12;101806.03;5073007;28;20492;-76
2022/01/17 09:13:07;;;;;;;34.72;20.27;;;;;;;6.38;61.94;101811.50;5070000;28;20044;-76
2022/01/17 09:15:52;;;;;;;38.28;22.23;;;;;;;6.36;62.10;101812.84;5066980;28;20041;-76
2022/01/17 09:18:37;;;;;;;43.70;23.10;;;;;;;6.35;62.49;101839.03;5070440;28;20071;-75
2022/01/17 09:21:22;;;;;;;34.13;19.90;;;;;;;6.46;62.24;101861.53;5075283;28;20035;-76
2022/01/17 09:24:07;;;;;;;34.88;19.10;;;;;;;6.28;62.44;101864.66;5074112;28;20043;-76
2022/01/17 09:26:52;;;;;;;35.10;17.27;;;;;;;6.17;64.24;101881.84;5063713;28;20413;-75
2022/01/17 09:29:37;;;;;;;33.55;17.65;;;;;;;6.42;64.21;101892.84;5067831;28;20500;-73
2022/01/17 09:32:22;;;;;;;28.50;17.08;;;;;;;6.49;62.58;101890.75;5074044;28;20029;-75
2022/01/17 09:35:11;;;;;;;30.33;16.73;;;;;;;6.62;63.16;101887.59;5072128;28;20045;-75
2022/01/17 09:37:56;;;;;;;39.38;21.05;;;;;;;6.79;62.47;101863.94;5074523;28;20041;-76
2022/01/17 09:40:41;;;;;;;35.33;15.70;;;;;;;6.74;61.22;101866.59;5064129;28;20059;-76
2022/01/17 09:43:26;;;;;;;34.70;16.75;;;;;;;6.90;61.86;101858.56;5071676;28;20040;-75
2022/01/17 09:46:11;;;;;;;35.80;17.15;;;;;;;7.04;62.55;101838.09;5065202;28;20067;-75
2022/01/17 09:49:02;;;;;;;25.08;15.32;;;;;;;7.13;62.53;101844.59;5069233;28;20032;-76
2022/01/17 09:54:44;;;;;;;39.72;22.30;;;;;;;7.32;62.41;101832.22;5066842;28;20040;-74
2022/01/17 09:57:31;;;;;;;37.28;21.25;;;;;;;7.55;62.59;101842.59;5067155;28;20040;-75
2022/01/17 10:00:18;;;;;;;45.33;23.17;;;;;;;7.66;61.15;101836.13;5078367;28;20047;-76
2022/01/17 10:03:06;;;;;;;42.45;21.65;;;;;;;7.65;61.09;101820.97;5072830;28;20051;-75
2022/01/17 10:05:51;;;;;;;43.03;23.95;;;;;;;7.68;61.61;101808.75;5074637;28;20044;-75
2022/01/17 10:08:36;;;;;;;38.35;22.17;;;;;;;7.70;61.70;101785.78;5076318;28;20063;-75
2022/01/17 10:11:22;;;;;;;33.55;18.60;;;;;;;7.76;61.49;101799.31;5075784;28;20047;-75
2022/01/17 10:14:23;;;;;;;42.72;22.55;;;;;;;7.99;61.03;101799.59;5073916;28;20044;-75
2022/01/17 10:17:11;;;;;;;37.08;21.10;;;;;;;8.32;60.05;101790.13;5077917;28;20036;-75
2022/01/17 10:20:01;;;;;;;39.25;19.80;;;;;;;8.56;59.44;101783.00;5075464;28;20045;-75
2022/01/17 10:22:58;;;;;;;35.55;20.90;;;;;;;8.60;58.91;101769.72;5073031;28;20045;-75
2022/01/17 10:26:02;;;;;;;40.90;21.08;;;;;;;8.94;57.65;101767.13;5077023;28;20051;-76
2022/01/17 10:37:38;;;;;;;32.25;19.13;;;;;;;11.04;52.52;101800.13;5072225;28;20045;-75
2022/01/17 10:40:24;;;;;;;35.30;20.00;;;;;;;11.43;51.41;101804.50;5076567;28;20044;-75
2022/01/17 10:43:28;;;;;;;27.45;17.70;;;;;;;11.23;52.15;101799.34;5068440;28;20044;-75
2022/01/17 10:46:22;;;;;;;37.00;19.65;;;;;;;10.70;54.88;101794.03;5077133;28;20041;-75
2022/01/17 10:49:06;;;;;;;35.50;20.45;;;;;;;10.65;55.84;101791.38;5073575;28;20044;-75
2022/01/17 10:51:53;;;;;;;29.58;17.48;;;;;;;10.59;56.10;101765.31;5072820;28;20040;-75
2022/01/17 10:54:42;;;;;;;39.88;22.55;;;;;;;10.48;57.43;101777.41;5076202;28;20049;-75
2022/01/17 10:57:26;;;;;;;38.83;22.25;;;;;;;10.53;57.53;101786.31;5067419;28;20028;-75
2022/01/17 11:00:14;;;;;;;31.83;19.38;;;;;;;10.49;58.24;101779.84;5069716;28;20052;-75
2022/01/17 11:03:07;;;;;;;41.55;23.30;;;;;;;10.59;58.27;101777.00;5074829;28;20044;-75
2022/01/17 11:05:54;;;;;;;43.35;26.17;;;;;;;10.44;59.20;101781.81;5074799;28;20052;-75
2022/01/17 11:08:40;;;;;;;55.17;30.75;;;;;;;10.33;59.67;101791.16;5072027;28;20505;-76
2022/01/17 11:11:25;;;;;;;58.72;32.90;;;;;;;9.96;61.02;101784.38;5071136;28;20048;-75
2022/01/17 11:14:10;;;;;;;44.13;25.80;;;;;;;10.00;60.94;101788.19;5068575;28;20041;-75
2022/01/17 11:16:55;;;;;;;45.35;23.20;;;;;;;10.05;60.07;101776.44;5068886;28;20041;-75
2022/01/17 11:22:47;;;;;;;49.05;29.33;;;;;;;10.15;60.28;101773.63;5071835;28;20048;-75
2022/01/17 11:25:34;;;;;;;48.33;27.98;;;;;;;10.17;59.66;101764.13;5056391;28;20041;-76
2022/01/17 11:28:22;;;;;;;39.15;23.63;;;;;;;10.32;58.34;101760.44;5058583;28;20041;-76
2022/01/17 11:31:15;;;;;;;32.35;18.20;;;;;;;10.56;55.78;101744.16;5073158;28;20040;-76
2022/01/17 11:34:00;;;;;;;25.40;13.30;;;;;;;10.68;53.62;101736.38;5071249;28;20045;-77
2022/01/17 11:36:45;;;;;;;13.93;6.55;;;;;;;10.71;46.92;101709.41;5070984;28;20049;-77
2022/01/17 11:39:30;;;;;;;20.30;8.60;;;;;;;10.87;48.52;101710.00;5065498;28;20041;-76
2022/01/17 11:42:47;;;;;;;24.80;12.10;;;;;;;10.95;47.59;101722.97;5071218;28;20044;-76
2022/01/17 11:45:35;;;;;;;24.65;9.80;;;;;;;11.17;46.42;101749.63;5065961;28;20044;-76
2022/01/17 11:48:31;;;;;;;18.48;8.48;;;;;;;11.21;47.23;101744.41;5063541;28;20033;-76
2022/01/17 11:51:16;;;;;;;21.85;7.43;;;;;;;11.21;47.07;101728.88;5066351;28;20485;-76
2022/01/17 11:54:13;;;;;;;12.68;4.90;;;;;;;11.39;47.10;101735.41;5062897;28;20048;-75
2022/01/17 11:57:03;;;;;;;13.43;5.70;;;;;;;11.38;46.08;101744.66;5069671;28;20793;-75
2022/01/17 11:59:49;;;;;;;21.83;7.10;;;;;;;11.40;46.93;101742.47;5066713;28;20053;-76
2022/01/17 12:02:37;;;;;;;12.52;6.57;;;;;;;11.62;46.46;101729.06;5071832;28;20055;-76
2022/01/17 12:05:21;;;;;;;17.02;6.40;;;;;;;11.72;45.78;101689.94;5080444;28;20044;-75
2022/01/17 12:08:06;;;;;;;14.10;5.05;;;;;;;11.68;43.11;101688.91;5078347;28;20516;-76
2022/01/17 12:11:03;;;;;;;58.78;10.38;;;;;;;11.56;44.12;101692.91;5076691;28;20254;-76
2022/01/17 12:13:48;;;;;;;12.90;6.35;;;;;;;11.74;43.07;101683.09;5079710;28;20044;-75
2022/01/17 12:16:36;;;;;;;7.45;3.00;;;;;;;11.81;42.58;101667.19;5078419;28;20040;-76
2022/01/17 12:19:21;;;;;;;9.10;4.45;;;;;;;11.98;42.19;101685.69;5075916;28;20051;-76
2022/01/17 12:22:06;;;;;;;4.60;3.00;;;;;;;12.08;41.56;101671.88;5075076;28;20043;-76
2022/01/17 12:24:51;;;;;;;5.65;3.22;;;;;;;12.12;41.75;101666.63;5075917;28;20047;-76
2022/01/17 12:27:35;;;;;;;7.10;3.40;;;;;;;12.27;42.01;101671.78;5081861;28;20067;-75
2022/01/17 12:30:20;;;;;;;16.20;2.78;;;;;;;12.60;40.99;101673.25;5078205;28;20171;-75
2022/01/17 12:33:10;;;;;;;9.25;4.32;;;;;;;12.55;41.21;101658.91;5076640;28;20087;-75
2022/01/17 12:35:57;;;;;;;9.73;4.43;;;;;;;12.30;42.59;101660.25;5080583;28;20047;-76
2022/01/17 12:38:43;;;;;;;9.07;3.63;;;;;;;12.33;43.19;101657.72;5074771;28;20523;-76
2022/01/17 12:41:36;;;;;;;10.27;3.47;;;;;;;12.39;43.29;101647.53;5071121;28;20522;-76
2022/01/17 12:44:22;;;;;;;5.05;2.97;;;;;;;12.45;43.25;101638.09;5068633;28;20043;-75
2022/01/17 12:47:07;;;;;;;4.75;2.92;;;;;;;12.48;43.09;101625.78;5080083;28;20043;-76
2022/01/17 12:49:51;;;;;;;16.45;6.65;;;;;;;12.62;42.55;101627.38;5074418;28;20071;-76
2022/01/17 12:52:36;;;;;;;15.70;4.03;;;;;;;12.71;40.67;101616.53;5079481;28;20040;-76
2022/01/17 12:55:22;;;;;;;11.02;3.90;;;;;;;12.59;39.86;101606.19;5069552;28;20516;-75
2022/01/17 12:58:24;;;;;;;10.35;5.15;;;;;;;12.62;39.76;101604.75;5075910;28;20040;-75
2022/01/17 13:01:15;;;;;;;5.70;3.30;;;;;;;12.84;40.28;101602.88;5077374;28;20039;-75
2022/01/17 13:04:04;;;;;;;11.13;4.70;;;;;;;12.90;39.80;101597.28;5071387;28;20404;-78
2022/01/17 13:06:52;;;;;;;38.35;5.25;;;;;;;13.03;39.36;101601.88;5068412;28;20048;-77
2022/01/17 13:09:40;;;;;;;6.45;3.08;;;;;;;13.24;39.29;101592.09;5062432;28;20056;-79
2022/01/17 13:12:25;;;;;;;7.70;3.33;;;;;;;15.38;35.04;101575.34;5070212;28;20048;-78